Time;durP1;ratioP1;P1;durP2;ratioP2;P2;SDS_P1;SDS_P2;PMS_P1;PMS_P2;Temp;Humidity;BMP_temperature;BMP_pressure;BME280_temperature;BME280_humidity;BME280_pressure;Samples;Min_cycle;Max_cycle;Signal;HPM_P1;HPM_P2
2022/06/13 00:00:06;;;;;;;;;;;;;;;;;;5033984;28;20068;-62
2022/06/13 00:02:34;;;;;;;41.40;39.30;;;;;;;;;;5033914;28;19912;-62
2022/06/13 00:05:00;;;;;;;41.05;38.95;;;;;;;;;;5037024;28;20488;-62
2022/06/13 00:07:25;;;;;;;34.55;32.78;;;;;;;;;;5029930;28;20025;-62
2022/06/13 00:09:50;;;;;;;33.60;31.90;;;;;;;;;;5031222;28;20512;-62
2022/06/13 00:12:16;;;;;;;24.85;23.45;;;;;;;;;;5028676;28;20417;-62
2022/06/13 00:14:41;;;;;;;22.55;21.35;;;;;;;;;;5032630;28;20380;-62
2022/06/13 00:17:06;;;;;;;26.25;24.85;;;;;;;;;;5032364;28;20033;-61
2022/06/13 00:19:32;;;;;;;29.35;27.75;;;;;;;;;;5030549;28;20051;-61
2022/06/13 00:21:58;;;;;;;26.25;24.88;;;;;;;;;;5027475;28;20095;-61
2022/06/13 00:24:23;;;;;;;28.35;26.88;;;;;;;;;;5028829;28;20079;-61
2022/06/13 00:26:48;;;;;;;26.25;24.73;;;;;;;;;;5030547;28;20025;-62
2022/06/13 00:29:14;;;;;;;22.58;21.38;;;;;;;;;;5029569;28;20363;-62
2022/06/13 00:31:39;;;;;;;21.95;20.70;;;;;;;;;;5030774;28;20459;-61
2022/06/13 00:34:04;;;;;;;22.75;21.55;;;;;;;;;;5029884;28;20022;-62
2022/06/13 00:36:30;;;;;;;22.77;21.58;;;;;;;;;;5028218;28;20404;-62
2022/06/13 00:38:55;;;;;;;24.92;23.60;;;;;;;;;;5031233;28;20025;-62
2022/06/13 00:41:25;;;;;;;22.52;21.33;;;;;;;;;;5031997;28;20033;-62
2022/06/13 00:43:52;;;;;;;25.77;24.42;;;;;;;;;;5030218;28;20067;-62
2022/06/13 00:46:22;;;;;;;27.50;26.02;;;;;;;;;;5031164;28;20069;-62
2022/06/13 00:48:53;;;;;;;21.88;20.70;;;;;;;;;;5032600;28;20044;-62
2022/06/13 00:51:19;;;;;;;27.30;25.85;;;;;;;;;;5033597;28;20041;-62
2022/06/13 00:53:45;;;;;;;24.55;23.15;;;;;;;;;;5031590;28;20094;-62
2022/06/13 00:56:15;;;;;;;24.65;23.30;;;;;;;;;;5033645;28;20060;-62
2022/06/13 00:58:46;;;;;;;28.95;27.45;;;;;;;;;;5034146;28;20051;-62
2022/06/13 01:01:11;;;;;;;25.90;24.50;;;;;;;;;;5036606;28;20029;-62
2022/06/13 01:03:37;;;;;;;28.08;26.58;;;;;;;;;;5033242;28;20629;-62
2022/06/13 01:06:05;;;;;;;28.88;27.27;;;;;;;;;;5032736;28;20036;-62
2022/06/13 01:08:34;;;;;;;27.20;25.70;;;;;;;;;;5032110;28;20032;-62
2022/06/13 01:11:18;;;;;;;29.48;27.90;;;;;;;;;;5034946;28;20099;-62
2022/06/13 01:13:55;;;;;;;27.58;26.08;;;;;;;;;;5033330;28;20576;-62
2022/06/13 01:16:42;;;;;;;28.85;27.35;;;;;;;;;;5034595;28;20044;-62
2022/06/13 01:19:29;;;;;;;34.92;33.13;;;;;;;;;;5034408;28;20028;-62
2022/06/13 01:22:16;;;;;;;37.05;35.15;;;;;;;;;;5034219;28;20059;-62
2022/06/13 01:25:19;;;;;;;40.40;38.35;;;;;;;;;;5036470;28;20029;-62
2022/06/13 01:28:20;;;;;;;35.03;33.22;;;;;;;;;;5036333;28;20136;-62
2022/06/13 01:30:57;;;;;;;36.75;34.85;;;;;;;;;;5032384;28;20043;-62
2022/06/13 01:33:34;;;;;;;41.38;39.22;;;;;;;;;;5036655;28;20048;-62
2022/06/13 01:36:29;;;;;;;42.75;40.58;;;;;;;;;;5034849;28;20033;-62
2022/06/13 01:39:21;;;;;;;39.85;37.80;;;;;;;;;;5031103;28;20511;-62
2022/06/13 01:42:02;;;;;;;48.78;46.30;;;;;;;;;;5034235;28;20040;-62
2022/06/13 01:44:33;;;;;;;45.95;43.63;;;;;;;;;;5032113;28;20037;-62
2022/06/13 01:46:59;;;;;;;46.95;44.55;;;;;;;;;;5033506;28;20503;-62
2022/06/13 01:49:28;;;;;;;43.13;40.90;;;;;;;;;;5034185;28;20129;-62
2022/06/13 01:52:22;;;;;;;31.73;30.08;;;;;;;;;;5030406;28;20225;-62
2022/06/13 01:54:54;;;;;;;27.65;26.15;;;;;;;;;;5032736;28;20587;-62
2022/06/13 01:57:50;;;;;;;27.42;25.95;;;;;;;;;;5035611;28;20149;-62
2022/06/13 02:00:27;;;;;;;27.13;25.65;;;;;;;;;;5033195;28;20052;-61
2022/06/13 02:03:06;;;;;;;21.23;20.13;;;;;;;;;;5030147;28;20025;-62
2022/06/13 02:05:39;;;;;;;24.23;22.92;;;;;;;;;;5032521;28;20459;-62
2022/06/13 02:08:10;;;;;;;24.27;22.98;;;;;;;;;;5030051;28;20037;-62
2022/06/13 02:10:42;;;;;;;17.70;16.70;;;;;;;;;;5032060;28;20117;-62
2022/06/13 02:13:13;;;;;;;19.52;18.38;;;;;;;;;;5033913;28;20044;-62
2022/06/13 02:15:43;;;;;;;19.27;18.23;;;;;;;;;;5034271;28;20037;-62
2022/06/13 02:18:14;;;;;;;16.58;15.68;;;;;;;;;;5018146;28;20029;-61
2022/06/13 02:20:49;;;;;;;17.85;16.85;;;;;;;;;;5031436;28;20031;-62
2022/06/13 02:23:19;;;;;;;19.95;18.88;;;;;;;;;;5032833;28;20135;-62
2022/06/13 02:26:04;;;;;;;21.92;20.73;;;;;;;;;;5033166;28;20100;-62
2022/06/13 02:28:36;;;;;;;29.88;28.13;;;;;;;;;;5032164;28;20036;-62
2022/06/13 02:31:40;;;;;;;24.00;22.70;;;;;;;;;;5031715;28;20025;-62
2022/06/13 02:34:15;;;;;;;28.75;27.25;;;;;;;;;;5029377;28;20041;-62
2022/06/13 02:36:53;;;;;;;31.75;30.10;;;;;;;;;;5031125;28;20064;-62
2022/06/13 02:39:26;;;;;;;26.58;25.17;;;;;;;;;;5031962;28;20051;-62
2022/06/13 02:42:07;;;;;;;25.50;24.10;;;;;;;;;;5033079;28;20041;-62
2022/06/13 02:44:35;;;;;;;23.23;21.95;;;;;;;;;;5033394;28;20033;-62
2022/06/13 02:47:14;;;;;;;22.08;20.88;;;;;;;;;;5033886;28;20583;-62
2022/06/13 02:49:45;;;;;;;16.75;15.82;;;;;;;;;;5035317;28;20103;-62
2022/06/13 02:52:35;;;;;;;16.27;15.18;;;;;;;;;;5031135;28;20048;-61
2022/06/13 02:55:05;;;;;;;16.63;15.73;;;;;;;;;;5032019;28;20072;-61
2022/06/13 02:58:06;;;;;;;17.13;16.02;;;;;;;;;;5032553;28;20030;-61
2022/06/13 03:00:46;;;;;;;18.63;17.55;;;;;;;;;;5012483;28;20045;-61
2022/06/13 03:03:20;;;;;;;19.73;18.63;;;;;;;;;;5031328;28;20134;-62
2022/06/13 03:05:45;;;;;;;28.75;27.25;;;;;;;;;;5030707;28;20175;-62
2022/06/13 03:08:43;;;;;;;32.55;30.85;;;;;;;;;;5028304;28;20128;-62
2022/06/13 03:11:29;;;;;;;35.13;33.25;;;;;;;;;;5028349;28;20041;-62
2022/06/13 03:14:31;;;;;;;29.58;28.05;;;;;;;;;;5029817;28;20040;-61
2022/06/13 03:17:05;;;;;;;32.97;30.88;;;;;;;;;;5031812;28;20253;-62
2022/06/13 03:19:40;;;;;;;33.30;31.55;;;;;;;;;;5028373;28;20025;-62
2022/06/13 03:22:18;;;;;;;33.80;32.00;;;;;;;;;;5028994;28;20037;-61
2022/06/13 03:24:52;;;;;;;31.23;29.63;;;;;;;;;;5033581;28;20025;-61
2022/06/13 03:27:33;;;;;;;28.83;27.33;;;;;;;;;;5031006;28;20138;-61
2022/06/13 03:30:04;;;;;;;27.70;26.17;;;;;;;;;;5030603;28;20048;-61
2022/06/13 03:32:34;;;;;;;18.27;17.25;;;;;;;;;;5033242;28;20768;-61
2022/06/13 03:35:03;;;;;;;21.07;19.83;;;;;;;;;;5031777;28;20063;-61
2022/06/13 03:37:35;;;;;;;20.02;18.92;;;;;;;;;;5030366;28;20041;-61
2022/06/13 03:40:16;;;;;;;20.35;19.15;;;;;;;;;;5032339;28;20029;-61
2022/06/13 03:42:53;;;;;;;22.80;21.55;;;;;;;;;;5032722;28;20059;-61
2022/06/13 03:45:21;;;;;;;18.40;17.40;;;;;;;;;;5032832;28;20041;-61
2022/06/13 03:47:49;;;;;;;23.23;21.95;;;;;;;;;;5031906;28;20480;-61
2022/06/13 03:50:28;;;;;;;21.23;20.02;;;;;;;;;;5032094;28;20033;-61
2022/06/13 03:53:02;;;;;;;18.38;17.17;;;;;;;;;;5027959;28;20037;-61
2022/06/13 03:55:34;;;;;;;15.95;15.05;;;;;;;;;;5028967;28;20037;-61
2022/06/13 03:58:14;;;;;;;19.73;18.63;;;;;;;;;;5032576;28;20037;-61
2022/06/13 04:00:56;;;;;;;22.88;21.60;;;;;;;;;;5032718;28;20112;-61
2022/06/13 04:03:24;;;;;;;28.00;26.50;;;;;;;;;;5033736;28;20496;-61
2022/06/13 04:06:05;;;;;;;26.70;25.30;;;;;;;;;;5034250;28;20369;-61
2022/06/13 04:08:32;;;;;;;;;;;;;;;;;;5021570;28;20037;-61
2022/06/13 04:11:28;;;;;;;18.05;17.05;;;;;;;;;;5031900;28;19928;-61
2022/06/13 04:14:01;;;;;;;24.38;23.08;;;;;;;;;;5032187;28;20527;-61
2022/06/13 04:16:47;;;;;;;23.33;21.92;;;;;;;;;;5030867;28;20148;-61
2022/06/13 04:19:24;;;;;;;24.90;23.60;;;;;;;;;;5035113;28;20043;-61
2022/06/13 04:22:03;;;;;;;23.02;21.73;;;;;;;;;;5032942;28;20021;-61
2022/06/13 04:24:40;;;;;;;29.98;28.38;;;;;;;;;;5034601;28;20056;-61
2022/06/13 04:27:23;;;;;;;24.05;22.13;;;;;;;;;;5036033;28;20116;-61
2022/06/13 04:29:51;;;;;;;27.63;26.02;;;;;;;;;;5037414;28;20084;-61
2022/06/13 04:32:22;;;;;;;22.38;21.17;;;;;;;;;;5036275;28;20039;-61
2022/06/13 04:34:51;;;;;;;24.95;23.63;;;;;;;;;;5033756;28;20106;-61
2022/06/13 04:37:18;;;;;;;17.65;16.65;;;;;;;;;;5033612;28;20033;-61
2022/06/13 04:39:47;;;;;;;21.00;19.90;;;;;;;;;;5036118;28;20028;-61
2022/06/13 04:42:14;;;;;;;22.02;20.77;;;;;;;;;;5033224;28;20421;-60
2022/06/13 04:44:41;;;;;;;20.75;19.65;;;;;;;;;;5035836;28;20061;-61
2022/06/13 04:47:11;;;;;;;25.60;23.85;;;;;;;;;;5035485;28;20033;-61
2022/06/13 04:49:45;;;;;;;21.30;20.05;;;;;;;;;;5037184;28;20029;-61
2022/06/13 04:52:15;;;;;;;22.85;21.65;;;;;;;;;;5032265;28;20067;-61
2022/06/13 04:55:01;;;;;;;21.77;20.58;;;;;;;;;;5033581;28;20052;-62
2022/06/13 04:57:28;;;;;;;22.80;21.60;;;;;;;;;;5032522;28;20033;-61
2022/06/13 04:59:54;;;;;;;19.70;18.60;;;;;;;;;;5033919;28;20486;-61
2022/06/13 05:02:35;;;;;;;25.88;24.48;;;;;;;;;;5033704;28;20052;-61
2022/06/13 05:05:01;;;;;;;26.80;25.40;;;;;;;;;;5032439;28;20048;-61
2022/06/13 05:07:27;;;;;;;33.28;31.55;;;;;;;;;;5033170;28;20445;-61
2022/06/13 05:09:57;;;;;;;31.10;29.50;;;;;;;;;;5034269;28;20037;-61
2022/06/13 05:12:30;;;;;;;31.45;29.83;;;;;;;;;;5033675;28;20462;-61
2022/06/13 05:15:04;;;;;;;27.90;26.40;;;;;;;;;;5037617;28;20026;-61
2022/06/13 05:17:33;;;;;;;22.70;21.33;;;;;;;;;;5033295;28;20521;-61
2022/06/13 05:20:17;;;;;;;35.70;33.85;;;;;;;;;;5035251;28;20033;-61
2022/06/13 05:23:01;;;;;;;36.13;34.28;;;;;;;;;;5034629;28;20119;-61
2022/06/13 05:25:32;;;;;;;32.50;30.80;;;;;;;;;;5031852;28;20616;-60
2022/06/13 05:27:57;;;;;;;35.85;33.90;;;;;;;;;;5032300;28;20039;-61
2022/06/13 05:30:24;;;;;;;28.92;27.38;;;;;;;;;;5029628;28;20037;-61
2022/06/13 05:32:49;;;;;;;30.30;28.70;;;;;;;;;;5026147;28;20467;-60
2022/06/13 05:35:22;;;;;;;39.85;37.75;;;;;;;;;;5033540;28;20035;-61
2022/06/13 05:37:48;;;;;;;40.60;38.50;;;;;;;;;;5033864;28;20036;-61
2022/06/13 05:40:15;;;;;;;37.20;35.30;;;;;;;;;;5036622;28;20034;-60
2022/06/13 05:42:41;;;;;;;44.15;41.65;;;;;;;;;;5034162;28;20025;-60
2022/06/13 05:45:10;;;;;;;34.50;32.72;;;;;;;;;;5034596;28;20508;-60
2022/06/13 05:47:35;;;;;;;41.60;39.40;;;;;;;;;;5032926;28;20064;-60
2022/06/13 05:50:01;;;;;;;43.55;41.15;;;;;;;;;;5034099;28;20639;-60
2022/06/13 05:52:26;;;;;;;40.95;38.85;;;;;;;;;;5025250;28;20076;-61
2022/06/13 05:54:51;;;;;;;35.88;34.05;;;;;;;;;;5025536;28;20025;-62
2022/06/13 05:57:17;;;;;;;41.38;39.28;;;;;;;;;;5026085;28;20039;-61
2022/06/13 05:59:42;;;;;;;41.45;39.35;;;;;;;;;;5028853;28;20035;-61
2022/06/13 06:02:09;;;;;;;40.42;38.35;;;;;;;;;;5032481;28;20049;-61
2022/06/13 06:04:35;;;;;;;44.22;41.92;;;;;;;;;;5031793;28;20029;-61
2022/06/13 06:07:00;;;;;;;39.15;37.15;;;;;;;;;;5030182;28;20110;-64
2022/06/13 06:09:25;;;;;;;17.00;16.00;;;;;;;;;;5031451;28;20032;-62
2022/06/13 06:11:51;;;;;;;41.78;39.67;;;;;;;;;;5026422;28;20040;-62
2022/06/13 06:14:16;;;;;;;32.08;30.38;;;;;;;;;;5029703;28;20071;-62
2022/06/13 06:16:42;;;;;;;29.25;27.67;;;;;;;;;;5029275;28;20136;-62
2022/06/13 06:19:07;;;;;;;32.58;30.83;;;;;;;;;;5030345;28;20086;-62
2022/06/13 06:21:32;;;;;;;19.08;15.70;;;;;;;;;;5029844;28;20759;-62
2022/06/13 06:23:58;;;;;;;20.55;19.45;;;;;;;;;;5031512;28;20454;-63
2022/06/13 06:26:26;;;;;;;26.58;25.13;;;;;;;;;;5031297;28;20026;-62
2022/06/13 06:28:51;;;;;;;13.23;12.43;;;;;;;;;;5029750;28;20029;-62
2022/06/13 06:31:18;;;;;;;13.32;12.52;;;;;;;;;;5030711;28;20033;-62
2022/06/13 06:33:44;;;;;;;11.70;11.00;;;;;;;;;;5030194;28;20056;-62
2022/06/13 06:36:12;;;;;;;18.27;17.27;;;;;;;;;;5026345;28;20471;-61
2022/06/13 06:38:38;;;;;;;19.95;18.85;;;;;;;;;;5030977;28;20115;-62
2022/06/13 06:41:03;;;;;;;18.73;17.60;;;;;;;;;;5031009;28;20033;-62
2022/06/13 06:43:29;;;;;;;23.27;21.98;;;;;;;;;;5031050;28;20619;-62
2022/06/13 06:45:54;;;;;;;55.53;52.63;;;;;;;;;;5030667;28;20029;-62
2022/06/13 06:48:22;;;;;;;51.17;48.58;;;;;;;;;;5030804;28;20035;-62
2022/06/13 06:50:49;;;;;;;52.55;49.90;;;;;;;;;;5031394;28;20607;-63
2022/06/13 06:53:17;;;;;;;31.50;29.65;;;;;;;;;;5028566;28;20066;-63
2022/06/13 07:01:13;;;;;;;45.17;42.88;;;;;;;;;;5029862;28;20098;-65
2022/06/13 07:03:39;;;;;;;17.70;16.70;;;;;;;;;;5026847;28;20065;-62
2022/06/13 07:06:07;;;;;;;19.23;18.00;;;;;;;;;;5031733;28;20119;-62
2022/06/13 07:08:33;;;;;;;18.48;17.38;;;;;;;;;;5030555;28;20033;-61
2022/06/13 07:13:47;;;;;;;15.40;14.50;;;;;;;;;;5030484;28;20047;-62
2022/06/13 07:16:13;;;;;;;58.50;55.58;;;;;;;;;;5027461;28;20518;-62
2022/06/13 07:18:41;;;;;;;46.20;43.85;;;;;;;;;;5031097;28;20044;-62
2022/06/13 07:21:07;;;;;;;74.40;70.70;;;;;;;;;;5028086;28;20030;-62
2022/06/13 07:23:33;;;;;;;68.00;64.53;;;;;;;;;;5031466;28;20032;-62
2022/06/13 07:25:58;;;;;;;56.88;53.97;;;;;;;;;;5029413;28;20787;-63
2022/06/13 07:28:23;;;;;;;46.22;43.35;;;;;;;;;;5030466;28;20103;-62
2022/06/13 07:30:49;;;;;;;31.52;29.90;;;;;;;;;;5026612;28;20374;-62
2022/06/13 07:33:14;;;;;;;31.10;29.50;;;;;;;;;;5028007;28;20156;-63
2022/06/13 07:35:39;;;;;;;44.70;42.42;;;;;;;;;;5028030;28;20814;-62
2022/06/13 07:38:17;;;;;;;149.50;142.13;;;;;;;;;;5022823;28;20352;-63
2022/06/13 07:40:49;;;;;;;150.98;143.52;;;;;;;;;;5027283;28;20061;-62
2022/06/13 07:43:32;;;;;;;128.48;122.13;;;;;;;;;;5029109;28;20522;-62
2022/06/13 07:46:02;;;;;;;165.02;156.85;;;;;;;;;;5028613;28;20033;-62
2022/06/13 07:48:28;;;;;;;90.38;85.90;;;;;;;;;;5029591;28;20649;-62
2022/06/13 07:50:54;;;;;;;70.75;67.20;;;;;;;;;;5028960;28;20071;-62
2022/06/13 07:53:19;;;;;;;93.32;88.70;;;;;;;;;;5027125;28;20025;-62
2022/06/13 07:55:45;;;;;;;92.38;87.78;;;;;;;;;;5025329;28;20037;-63
2022/06/13 07:58:19;;;;;;;68.57;65.15;;;;;;;;;;5026816;28;20064;-62
2022/06/13 08:00:48;;;;;;;74.00;70.32;;;;;;;;;;5028641;28;20045;-61
2022/06/13 08:03:23;;;;;;;68.22;64.82;;;;;;;;;;5032384;28;20144;-62
2022/06/13 08:05:50;;;;;;;108.00;102.70;;;;;;;;;;5029116;28;20477;-64
2022/06/13 08:08:16;;;;;;;105.22;100.05;;;;;;;;;;5033272;28;20033;-63
2022/06/13 08:10:42;;;;;;;143.77;136.68;;;;;;;;;;5031236;28;20534;-63
2022/06/13 08:13:11;;;;;;;68.20;64.82;;;;;;;;;;5033862;28;20037;-62
2022/06/13 08:15:37;;;;;;;70.25;66.53;;;;;;;;;;5017233;28;20701;-64
2022/06/13 08:18:03;;;;;;;76.88;72.90;;;;;;;;;;5034174;28;20037;-62
2022/06/13 08:20:28;;;;;;;69.63;66.15;;;;;;;;;;5034465;28;20537;-64
2022/06/13 08:22:55;;;;;;;134.68;128.02;;;;;;;;;;5029084;28;20037;-63
2022/06/13 08:25:26;;;;;;;68.38;64.97;;;;;;;;;;5028574;28;20095;-62
2022/06/13 08:27:52;;;;;;;64.80;61.13;;;;;;;;;;5027935;28;20124;-63
2022/06/13 08:30:17;;;;;;;67.85;64.45;;;;;;;;;;5028808;28;20116;-64
2022/06/13 08:32:43;;;;;;;116.03;109.28;;;;;;;;;;5031976;28;20112;-64
2022/06/13 08:35:09;;;;;;;131.98;125.38;;;;;;;;;;5033026;28;20068;-64
2022/06/13 08:37:34;;;;;;;132.27;125.75;;;;;;;;;;5032762;28;20037;-64
2022/06/13 08:40:00;;;;;;;115.80;110.10;;;;;;;;;;5034012;28;20533;-64
2022/06/13 08:42:37;;;;;;;86.35;82.05;;;;;;;;;;5034850;28;20033;-65
2022/06/13 08:45:09;;;;;;;107.47;102.18;;;;;;;;;;5032709;28;20029;-63
2022/06/13 08:47:58;;;;;;;97.57;92.78;;;;;;;;;;5032126;28;20463;-64
2022/06/13 08:50:42;;;;;;;79.75;75.80;;;;;;;;;;5036219;28;20580;-64
2022/06/13 08:53:21;;;;;;;48.63;46.13;;;;;;;;;;5037343;28;20062;-65
2022/06/13 08:56:01;;;;;;;51.13;48.53;;;;;;;;;;5036720;28;20067;-64
2022/06/13 08:58:34;;;;;;;81.53;77.50;;;;;;;;;;5034391;28;20795;-65
2022/06/13 09:01:05;;;;;;;53.30;50.60;;;;;;;;;;5032435;28;20099;-63
2022/06/13 09:03:39;;;;;;;61.03;57.95;;;;;;;;;;5037417;28;20036;-63
2022/06/13 09:06:14;;;;;;;108.10;102.78;;;;;;;;;;5032224;28;20029;-64
2022/06/13 09:08:57;;;;;;;100.03;95.13;;;;;;;;;;5032316;28;20029;-64
2022/06/13 09:11:45;;;;;;;47.67;45.25;;;;;;;;;;5035075;28;20107;-63
2022/06/13 09:14:33;;;;;;;52.97;50.17;;;;;;;;;;5036387;28;20689;-64
2022/06/13 09:17:08;;;;;;;72.43;68.82;;;;;;;;;;5030391;28;20365;-63
2022/06/13 09:19:55;;;;;;;103.40;97.30;;;;;;;;;;5038421;28;20029;-63
2022/06/13 09:22:33;;;;;;;48.90;46.25;;;;;;;;;;5030846;28;20053;-63
2022/06/13 09:25:32;;;;;;;112.53;106.95;;;;;;;;;;5036715;28;20502;-64
2022/06/13 09:28:09;;;;;;;107.75;102.43;;;;;;;;;;5034992;28;20029;-63
2022/06/13 09:30:41;;;;;;;93.25;88.65;;;;;;;;;;5035035;28;20386;-62
2022/06/13 09:33:25;;;;;;;83.72;79.60;;;;;;;;;;5037183;28;20037;-63
2022/06/13 09:35:59;;;;;;;79.60;75.65;;;;;;;;;;5033995;28;20033;-62
2022/06/13 09:38:33;;;;;;;111.95;106.35;;;;;;;;;;5033984;28;20056;-62
2022/06/13 09:41:01;;;;;;;126.07;119.90;;;;;;;;;;5035188;28;20107;-62
2022/06/13 09:43:59;;;;;;;94.75;89.97;;;;;;;;;;5032182;28;20043;-62
2022/06/13 09:46:39;;;;;;;138.73;131.90;;;;;;;;;;5028820;28;20033;-62
2022/06/13 09:49:10;;;;;;;84.03;79.88;;;;;;;;;;5034557;28;20300;-62
2022/06/13 09:51:44;;;;;;;80.07;76.07;;;;;;;;;;5033402;28;20460;-62
2022/06/13 09:54:50;;;;;;;75.35;71.63;;;;;;;;;;5031872;28;20079;-62
2022/06/13 09:57:18;;;;;;;68.07;64.68;;;;;;;;;;5033701;28;20795;-62
2022/06/13 09:59:54;;;;;;;67.55;63.97;;;;;;;;;;5032054;28;20120;-63
2022/06/13 10:02:26;;;;;;;90.53;86.07;;;;;;;;;;5029321;28;20048;-62
2022/06/13 10:05:12;;;;;;;85.28;80.93;;;;;;;;;;5032582;28;20037;-63
2022/06/13 10:07:59;;;;;;;88.65;84.28;;;;;;;;;;5033529;28;20056;-62
2022/06/13 10:10:30;;;;;;;83.38;79.25;;;;;;;;;;5035502;28;20045;-61
2022/06/13 10:13:31;;;;;;;92.45;87.85;;;;;;;;;;5032879;28;20103;-63
2022/06/13 10:16:02;;;;;;;97.65;92.85;;;;;;;;;;5030797;28;20056;-62
2022/06/13 10:18:46;;;;;;;93.15;88.55;;;;;;;;;;5031183;28;20045;-63
2022/06/13 10:21:27;;;;;;;95.22;90.53;;;;;;;;;;5030077;28;20048;-62
2022/06/13 10:24:13;;;;;;;;;;;;;;;;;;5032094;28;20098;-62
2022/06/13 10:27:11;;;;;;;83.20;79.10;;;;;;;;;;5030177;28;20301;-61
2022/06/13 10:30:07;;;;;;;83.75;79.63;;;;;;;;;;5032863;28;20037;-63
2022/06/13 10:32:55;;;;;;;91.15;86.63;;;;;;;;;;5030728;28;20462;-62
2022/06/13 10:35:39;;;;;;;88.38;83.97;;;;;;;;;;5034695;28;20032;-62
2022/06/13 10:38:23;;;;;;;88.35;83.95;;;;;;;;;;5032757;28;20472;-62
2022/06/13 10:40:56;;;;;;;95.05;90.35;;;;;;;;;;5051499;28;20458;-61
2022/06/13 10:43:22;;;;;;;84.63;80.43;;;;;;;;;;5032814;28;20049;-61
2022/06/13 10:45:47;;;;;;;82.90;78.78;;;;;;;;;;5045655;28;20037;-62
2022/06/13 10:48:21;;;;;;;86.40;82.15;;;;;;;;;;5035832;28;20414;-61
2022/06/13 10:50:51;;;;;;;86.93;82.47;;;;;;;;;;5031930;28;20033;-61
2022/06/13 10:53:27;;;;;;;88.25;83.90;;;;;;;;;;5038342;28;20030;-61
2022/06/13 10:55:57;;;;;;;89.70;85.30;;;;;;;;;;5031110;28;20590;-61
2022/06/13 10:58:40;;;;;;;96.63;91.45;;;;;;;;;;5033506;28;20153;-61
2022/06/13 11:01:11;;;;;;;108.43;103.13;;;;;;;;;;5033774;28;20033;-61
2022/06/13 11:03:41;;;;;;;106.10;100.90;;;;;;;;;;5032899;28;20338;-61
2022/06/13 11:06:17;;;;;;;116.32;110.63;;;;;;;;;;5033153;28;20033;-61
2022/06/13 11:08:42;;;;;;;122.63;116.60;;;;;;;;;;5032807;28;20038;-62
2022/06/13 11:11:15;;;;;;;122.47;116.50;;;;;;;;;;5036460;28;20037;-61
2022/06/13 11:13:43;;;;;;;106.55;101.32;;;;;;;;;;5031255;28;20033;-61
2022/06/13 11:22:40;;;;;;;113.07;107.55;;;;;;;;;;5019060;28;20629;-62
2022/06/13 11:25:14;;;;;;;95.10;90.18;;;;;;;;;;5036818;28;21171;-62
2022/06/13 11:27:40;;;;;;;108.50;103.20;;;;;;;;;;5030497;28;20072;-61
2022/06/13 11:30:28;;;;;;;114.60;108.97;;;;;;;;;;5031364;28;20049;-62
2022/06/13 11:33:06;;;;;;;110.97;105.50;;;;;;;;;;5030366;28;20152;-61
2022/06/13 11:35:50;;;;;;;104.88;99.68;;;;;;;;;;5031228;28;20044;-61
2022/06/13 11:38:27;;;;;;;109.30;103.93;;;;;;;;;;5032321;28;20033;-61
2022/06/13 11:41:18;;;;;;;114.50;108.80;;;;;;;;;;5032858;28;20026;-61
2022/06/13 11:44:00;;;;;;;125.78;119.63;;;;;;;;;;5027537;28;20068;-61
2022/06/13 11:46:34;;;;;;;124.80;118.68;;;;;;;;;;5030206;28;20036;-61
2022/06/13 11:49:22;;;;;;;85.70;81.47;;;;;;;;;;5030653;28;20061;-61
2022/06/13 11:51:47;;;;;;;97.07;92.32;;;;;;;;;;5020203;28;20050;-61
2022/06/13 11:54:52;;;;;;;93.70;88.70;;;;;;;;;;5017988;28;20037;-61
2022/06/13 11:57:19;;;;;;;85.47;81.28;;;;;;;;;;5018512;28;20022;-63
2022/06/13 11:59:49;;;;;;;112.35;106.82;;;;;;;;;;5035764;28;20029;-61
2022/06/13 12:02:49;;;;;;;107.50;102.13;;;;;;;;;;5021569;28;20030;-63
2022/06/13 12:05:19;;;;;;;99.85;94.93;;;;;;;;;;5021208;28;20033;-61
2022/06/13 12:08:15;;;;;;;84.68;80.50;;;;;;;;;;5017778;28;20045;-62
2022/06/13 12:10:57;;;;;;;107.10;101.85;;;;;;;;;;5021074;28;20426;-61
2022/06/13 12:13:23;;;;;;;106.72;101.20;;;;;;;;;;5020585;28;20029;-62
2022/06/13 12:15:51;;;;;;;113.55;107.93;;;;;;;;;;5019343;28;20100;-62
2022/06/13 12:18:31;;;;;;;99.90;94.95;;;;;;;;;;5017883;28;20116;-62
2022/06/13 12:21:08;;;;;;;99.85;94.95;;;;;;;;;;5019179;28;20473;-62
2022/06/13 12:23:47;;;;;;;94.00;89.20;;;;;;;;;;5018545;28;20038;-63
2022/06/13 12:26:29;;;;;;;101.95;96.95;;;;;;;;;;5019469;28;20044;-63
2022/06/13 12:29:04;;;;;;;95.50;90.78;;;;;;;;;;5018513;28;20036;-64
2022/06/13 12:31:40;;;;;;;90.88;86.38;;;;;;;;;;5017525;28;20107;-63
2022/06/13 12:34:22;;;;;;;84.10;79.95;;;;;;;;;;5019033;28;20022;-63
2022/06/13 12:37:09;;;;;;;92.40;87.82;;;;;;;;;;5020536;28;20478;-63
2022/06/13 12:39:53;;;;;;;82.75;78.63;;;;;;;;;;5016849;28;20029;-63
2022/06/13 12:42:27;;;;;;;87.20;82.90;;;;;;;;;;5016757;28;20582;-63
2022/06/13 12:45:26;;;;;;;74.93;71.20;;;;;;;;;;5014387;28;20041;-63
2022/06/13 12:48:05;;;;;;;77.75;73.88;;;;;;;;;;5018670;28;20057;-63
2022/06/13 12:51:07;;;;;;;70.63;67.10;;;;;;;;;;5016843;28;20768;-61
2022/06/13 12:53:51;;;;;;;74.43;70.72;;;;;;;;;;5017286;28;20111;-62
2022/06/13 12:56:41;;;;;;;81.53;77.50;;;;;;;;;;5016254;28;20041;-62
2022/06/13 12:59:29;;;;;;;78.97;75.07;;;;;;;;;;5014700;28;20032;-62
2022/06/13 13:02:13;;;;;;;78.65;74.75;;;;;;;;;;5015830;28;20074;-63
2022/06/13 13:05:25;;;;;;;81.68;77.63;;;;;;;;;;5018708;28;20029;-62
2022/06/13 13:08:07;;;;;;;76.63;72.82;;;;;;;;;;5012165;28;20133;-62
2022/06/13 13:11:00;;;;;;;72.22;68.63;;;;;;;;;;5016805;28;20086;-62
2022/06/13 13:13:34;;;;;;;79.28;75.35;;;;;;;;;;5018184;28;20483;-63
2022/06/13 13:16:29;;;;;;;77.68;73.78;;;;;;;;;;5013604;28;20394;-62
2022/06/13 13:19:28;;;;;;;82.72;78.68;;;;;;;;;;5017102;28;20083;-62
2022/06/13 13:21:59;;;;;;;71.78;68.20;;;;;;;;;;5014663;28;20061;-62
2022/06/13 13:24:49;;;;;;;76.82;73.00;;;;;;;;;;5015595;28;20033;-63
2022/06/13 13:27:17;;;;;;;62.13;59.03;;;;;;;;;;5019228;28;20044;-62
2022/06/13 13:30:10;;;;;;;74.60;70.80;;;;;;;;;;5016480;28;20597;-63
2022/06/13 13:32:39;;;;;;;89.93;85.50;;;;;;;;;;5015726;28;20029;-63
2022/06/13 13:35:29;;;;;;;77.80;73.70;;;;;;;;;;5017505;28;20030;-63
2022/06/13 13:38:10;;;;;;;80.85;76.65;;;;;;;;;;5017580;28;20519;-63
2022/06/13 13:40:45;;;;;;;85.45;81.25;;;;;;;;;;5014854;28;20115;-61
2022/06/13 13:43:30;;;;;;;92.15;87.60;;;;;;;;;;5016748;28;20040;-60
2022/06/13 13:45:59;;;;;;;98.78;93.90;;;;;;;;;;5015978;28;20037;-60
2022/06/13 13:48:34;;;;;;;107.60;102.25;;;;;;;;;;5015684;28;20510;-61
2022/06/13 13:51:06;;;;;;;111.72;106.22;;;;;;;;;;5017415;28;20029;-60
2022/06/13 13:53:38;;;;;;;113.95;107.43;;;;;;;;;;5015575;28;20060;-60
2022/06/13 13:56:15;;;;;;;115.03;109.38;;;;;;;;;;5016552;28;20033;-61
2022/06/13 13:58:44;;;;;;;124.18;118.05;;;;;;;;;;5016583;28;20731;-60
2022/06/13 14:01:27;;;;;;;123.25;117.22;;;;;;;;;;5016639;28;20029;-60
2022/06/13 14:04:22;;;;;;;98.47;93.53;;;;;;;;;;5016526;28;20045;-60
2022/06/13 14:07:19;;;;;;;94.93;90.25;;;;;;;;;;5032875;28;20318;-60
2022/06/13 14:09:48;;;;;;;93.63;88.85;;;;;;;;;;5001588;28;20045;-60
2022/06/13 14:12:14;;;;;;;94.50;89.85;;;;;;;;;;5016943;28;20038;-61
2022/06/13 14:14:48;;;;;;;88.97;84.60;;;;;;;;;;5018633;28;20052;-61
2022/06/13 14:17:29;;;;;;;92.60;87.80;;;;;;;;;;5013919;28;20038;-61
2022/06/13 14:19:59;;;;;;;97.55;92.72;;;;;;;;;;5018036;28;20025;-60
2022/06/13 14:22:25;;;;;;;81.13;77.13;;;;;;;;;;5015760;28;20120;-60
2022/06/13 14:25:15;;;;;;;85.70;81.45;;;;;;;;;;5016233;28;20050;-60
2022/06/13 14:28:00;;;;;;;95.30;90.60;;;;;;;;;;5015344;28;20026;-60
2022/06/13 14:36:08;;;;;;;88.10;83.50;;;;;;;;;;5016513;28;20120;-61
2022/06/13 14:38:53;;;;;;;93.47;88.93;;;;;;;;;;5013847;28;20487;-62
2022/06/13 14:41:35;;;;;;;88.55;83.63;;;;;;;;;;5017940;28;20098;-60
2022/06/13 14:44:07;;;;;;;92.72;88.13;;;;;;;;;;5012150;28;20033;-61
2022/06/13 14:46:46;;;;;;;84.45;80.18;;;;;;;;;;5017352;28;20045;-61
2022/06/13 14:49:54;;;;;;;87.95;83.43;;;;;;;;;;5013070;28;20110;-60
2022/06/13 14:52:30;;;;;;;87.85;83.45;;;;;;;;;;5012975;28;20060;-61
2022/06/13 14:55:01;;;;;;;70.57;67.07;;;;;;;;;;5015907;28;20042;-62
2022/06/13 14:57:26;;;;;;;86.93;82.32;;;;;;;;;;5016165;28;20443;-61
2022/06/13 15:00:13;;;;;;;93.43;88.80;;;;;;;;;;5017138;28;20026;-61
2022/06/13 15:02:53;;;;;;;101.18;96.20;;;;;;;;;;5015459;28;20049;-61
2022/06/13 15:05:21;;;;;;;118.97;113.13;;;;;;;;;;5014581;28;20029;-64
2022/06/13 15:08:01;;;;;;;91.53;87.03;;;;;;;;;;5018731;28;20128;-59
2022/06/13 15:10:35;;;;;;;80.40;76.43;;;;;;;;;;5017212;28;20117;-64
2022/06/13 15:13:01;;;;;;;66.55;63.13;;;;;;;;;;5015659;28;20048;-65
2022/06/13 15:15:32;;;;;;;48.70;46.20;;;;;;;;;;5015726;28;20033;-65
2022/06/13 15:17:57;;;;;;;58.28;55.38;;;;;;;;;;5014779;28;20118;-63